Nereus — SKTD — position and weather

sailwx.info

Track history (hours):
 
Tides and Currents Weather Stations Pressure Air Temp Water Temp Dewpoint Dewpoint Depression Visibility Wind Speed Wind Dir Waves Ship Positions

Oceanographic research ship Nereus (Sweden)

Detailed information on ship capabilities available from University of Delaware's Ocean Information Center.

Last reported at 2016-Aug-29 12:33 UTC. Time now 2016-Aug-29 12:57 UTC.
Position N 58°52' E 011°05'.

Length 16 m.

Type: Dredging. MMSI: 265599930.

Date/timePositionNaut miles runAvg speedWind from/ knotsBaromVisibWave heightAir tempDewpointWater temp
2016-Aug-29 12:33N 58°52' E 011°05'3 2.5
2016-Aug-29 11:33N 58°50' E 011°03'4 3.6
2016-Aug-29 10:32N 58°53' E 011°09'3 3.4
2016-Aug-29 09:33N 58°51' E 011°04'3 3.2
2016-Aug-29 08:33N 58°53' E 011°08'1 0.5
2016-Aug-29 07:31N 58°53' E 011°09'0 0.0
2016-Aug-29 06:31N 58°53' E 011°09'0 0.0
2016-Aug-29 05:31N 58°53' E 011°09'0 0.0
2016-Aug-29 04:31N 58°53' E 011°09'0 0.0
2016-Aug-29 03:31N 58°53' E 011°09'0 0.0
2016-Aug-29 02:31N 58°53' E 011°09'0 0.0
2016-Aug-29 01:28N 58°53' E 011°09'0 0.0
2016-Aug-29 00:31N 58°53' E 011°09'0 0.0
2016-Aug-28 23:31N 58°53' E 011°09'0 0.0
2016-Aug-28 22:31N 58°53' E 011°09'0 0.0
2016-Aug-28 21:31N 58°53' E 011°09'0 0.0
2016-Aug-28 20:31N 58°53' E 011°09'0 0.0
2016-Aug-28 19:28N 58°53' E 011°09'0 0.0
2016-Aug-28 18:31N 58°53' E 011°09'0 0.0
2016-Aug-28 17:25N 58°53' E 011°09'0 0.0
2016-Aug-28 16:31N 58°53' E 011°09'0 0.0
2016-Aug-28 15:31N 58°53' E 011°09'0 0.0
2016-Aug-28 14:31N 58°53' E 011°09'0 0.0
2016-Aug-28 13:31N 58°53' E 011°09'0 0.0
2016-Aug-28 12:31N 58°53' E 011°09'0 0.0
2016-Aug-28 11:31N 58°53' E 011°09'0 0.0
2016-Aug-28 10:31N 58°53' E 011°09'0 0.0
2016-Aug-28 09:31N 58°53' E 011°09'0 0.0
2016-Aug-28 08:31N 58°53' E 011°09'0 0.0
2016-Aug-28 07:31N 58°53' E 011°09'0 0.0
2016-Aug-28 06:31N 58°53' E 011°09'0 0.0
2016-Aug-28 05:31N 58°53' E 011°09'0 0.0
2016-Aug-28 04:31N 58°53' E 011°09'0 0.0
2016-Aug-28 03:31N 58°53' E 011°09'0 0.0
2016-Aug-28 02:28N 58°53' E 011°09'0 0.0
2016-Aug-28 01:31N 58°53' E 011°09'0 0.0
2016-Aug-28 00:31N 58°53' E 011°09'0 0.0
2016-Aug-27 23:31N 58°53' E 011°09'0 0.0
2016-Aug-27 22:31N 58°53' E 011°09'0 0.0
2016-Aug-27 21:31N 58°53' E 011°09'0 0.0
2016-Aug-27 20:28N 58°53' E 011°09'0 0.0
2016-Aug-27 19:31N 58°53' E 011°09'0 0.0
2016-Aug-27 18:31N 58°53' E 011°09'0 0.0
2016-Aug-27 17:31N 58°53' E 011°09'0 0.0
2016-Aug-27 16:32N 58°53' E 011°09'0 0.0
2016-Aug-27 15:31N 58°53' E 011°09'0 0.0
2016-Aug-27 14:28N 58°53' E 011°09'0 0.0
2016-Aug-27 13:31N 58°53' E 011°09'0 0.0
2016-Aug-27 12:31N 58°53' E 011°09'0 0.0
2016-Aug-27 11:31N 58°53' E 011°09'0 0.0
2016-Aug-27 10:32N 58°53' E 011°09'0 0.0
2016-Aug-27 09:31N 58°53' E 011°09'0 0.0
2016-Aug-27 08:32N 58°53' E 011°09'0 0.0
2016-Aug-27 07:32N 58°53' E 011°09'0 0.0
2016-Aug-27 06:32N 58°53' E 011°09'0 0.0
2016-Aug-27 04:32N 58°53' E 011°09'0 0.0
2016-Aug-27 03:32N 58°53' E 011°09'0 0.0
2016-Aug-27 02:32N 58°53' E 011°09'0 0.0
2016-Aug-27 01:32N 58°53' E 011°09'0 0.0
2016-Aug-27 00:32N 58°53' E 011°09'0 0.0
2016-Aug-26 23:32N 58°53' E 011°09'0 0.0
2016-Aug-26 22:32N 58°53' E 011°09'0 0.0
2016-Aug-26 21:32N 58°53' E 011°09'0 0.0
2016-Aug-26 20:32N 58°53' E 011°09'0 0.0
2016-Aug-26 19:32N 58°53' E 011°09'0 0.0
2016-Aug-26 18:32N 58°53' E 011°09'0 0.0
2016-Aug-26 17:32N 58°53' E 011°09'0 0.0
2016-Aug-26 16:32N 58°53' E 011°09'0 0.0
2016-Aug-26 15:32N 58°53' E 011°09'0 0.0
2016-Aug-26 14:32N 58°53' E 011°09'0 0.0
2016-Aug-26 13:29N 58°53' E 011°09'0 0.0
2016-Aug-26 12:32N 58°53' E 011°09'0 0.0
2016-Aug-26 11:32N 58°53' E 011°09'0 0.0
2016-Aug-26 10:32N 58°53' E 011°09'0 0.0
2016-Aug-26 09:32N 58°53' E 011°09'0 0.4
2016-Aug-26 08:33N 58°53' E 011°08'1 1.3
2016-Aug-26 07:33N 58°53' E 011°06'2 1.6
2016-Aug-26 06:32N 58°53' E 011°09'0 0.0
2016-Aug-26 04:32N 58°53' E 011°09'0 0.0
2016-Aug-26 03:32N 58°53' E 011°09'0 0.0
2016-Aug-26 02:32N 58°53' E 011°09'0 0.0
2016-Aug-26 01:32N 58°53' E 011°09'0 0.0
2016-Aug-26 00:32N 58°53' E 011°09'0 0.0
2016-Aug-25 23:32N 58°53' E 011°09'0 0.0
2016-Aug-25 22:32N 58°53' E 011°09'0 0.0
2016-Aug-25 21:32N 58°53' E 011°09'0 0.0
2016-Aug-25 20:32N 58°53' E 011°09'0 0.0
2016-Aug-25 19:32N 58°53' E 011°09'0 0.0
2016-Aug-25 18:33N 58°53' E 011°09'0 0.0
2016-Aug-25 17:33N 58°53' E 011°09'0 0.0
2016-Aug-25 16:30N 58°53' E 011°09'0 0.0
2016-Aug-25 15:33N 58°53' E 011°09'0 0.0
2016-Aug-25 14:33N 58°53' E 011°09'5 4.8
2016-Aug-25 13:33N 58°51' E 011°00'1 0.6
2016-Aug-25 12:33N 58°50' E 010°60'3 3.4
2016-Aug-25 11:33N 58°52' E 011°05'2 2.1
2016-Aug-25 10:31N 58°53' E 011°09'1 0.8
2016-Aug-25 09:34N 58°53' E 011°07'1 0.6
2016-Aug-25 08:33N 58°53' E 011°06'1 1.3
2016-Aug-25 07:31N 58°53' E 011°09'0 0.0
2016-Aug-25 06:31N 58°53' E 011°09'0 0.0
2016-Aug-25 04:31N 58°53' E 011°09'0 0.0
2016-Aug-25 03:28N 58°53' E 011°09'0 0.0
2016-Aug-25 02:31N 58°53' E 011°09'0 0.0
2016-Aug-25 01:31N 58°53' E 011°09'0 0.0
2016-Aug-25 00:31N 58°53' E 011°09'0 0.0
2016-Aug-24 23:31N 58°53' E 011°09'0 0.0
2016-Aug-24 22:31N 58°53' E 011°09'0 0.0
2016-Aug-24 21:31N 58°53' E 011°09'0 0.0
2016-Aug-24 20:31N 58°53' E 011°09'0 0.0
2016-Aug-24 19:31N 58°53' E 011°09'0 0.0
2016-Aug-24 18:31N 58°53' E 011°09'0 0.0
2016-Aug-24 17:31N 58°53' E 011°09'0 0.0
2016-Aug-24 16:31N 58°53' E 011°09'0 0.0
2016-Aug-24 15:31N 58°53' E 011°09'0 0.0
2016-Aug-24 14:31N 58°53' E 011°09'0 0.0
2016-Aug-24 13:28N 58°53' E 011°09'0 0.0
2016-Aug-24 12:31N 58°53' E 011°09'0 0.0
2016-Aug-24 11:31N 58°53' E 011°09'0 0.0
2016-Aug-24 10:31N 58°53' E 011°09'0 0.0
2016-Aug-24 09:31N 58°53' E 011°09'0 0.0
2016-Aug-24 08:31N 58°53' E 011°09'0 0.0
2016-Aug-24 07:31N 58°53' E 011°09'0 0.0
2016-Aug-24 06:31N 58°53' E 011°09'0 0.0
2016-Aug-24 04:31N 58°53' E 011°09'0 0.0
2016-Aug-24 03:31N 58°53' E 011°09'0 0.0
2016-Aug-24 02:31N 58°53' E 011°09'0 0.0
2016-Aug-24 01:31N 58°53' E 011°09'0 0.0
2016-Aug-24 00:28N 58°53' E 011°09'0 0.0
2016-Aug-23 23:31N 58°53' E 011°09'0 0.0
2016-Aug-23 22:31N 58°53' E 011°09'0 0.0
2016-Aug-23 21:31N 58°53' E 011°09'0 0.0
2016-Aug-23 20:31N 58°53' E 011°09'0 0.0
2016-Aug-23 19:31N 58°53' E 011°09'0 0.0
2016-Aug-23 18:31N 58°53' E 011°09'0 0.0
2016-Aug-23 17:31N 58°53' E 011°09'0 0.0
2016-Aug-23 16:31N 58°53' E 011°09'0 0.0
2016-Aug-23 15:31N 58°53' E 011°09'0 0.0
2016-Aug-23 14:28N 58°53' E 011°09'0 0.0
2016-Aug-23 13:31N 58°53' E 011°09'0 0.0
2016-Aug-23 12:31N 58°53' E 011°09'0 0.0
2016-Aug-23 11:31N 58°53' E 011°09'0 0.0
2016-Aug-23 10:31N 58°53' E 011°09'0 0.0
2016-Aug-23 09:31N 58°53' E 011°09'0 0.0
2016-Aug-23 08:31N 58°53' E 011°09'0 0.0
2016-Aug-23 07:31N 58°53' E 011°09'0 0.0
2016-Aug-23 06:33N 58°53' E 011°09'0 0.0
2016-Aug-23 05:33N 58°53' E 011°09'0 0.0
2016-Aug-23 04:33N 58°53' E 011°09'0 0.0
2016-Aug-23 03:33N 58°53' E 011°09'0 0.0
2016-Aug-23 02:33N 58°53' E 011°09'0 0.0
2016-Aug-23 01:33N 58°53' E 011°09'0 0.0
2016-Aug-23 00:33N 58°53' E 011°09'0 0.0
2016-Aug-22 23:33N 58°53' E 011°09'0 0.0
2016-Aug-22 22:33N 58°53' E 011°09'0 0.0
2016-Aug-22 21:33N 58°53' E 011°09'0 0.0
2016-Aug-22 20:33N 58°53' E 011°09'0 0.0
2016-Aug-22 19:33N 58°53' E 011°09'0 0.0
2016-Aug-22 18:33N 58°53' E 011°09'0 0.0
2016-Aug-22 17:33N 58°53' E 011°09'0 0.0
2016-Aug-22 16:33N 58°53' E 011°09'0 0.0
2016-Aug-22 15:33N 58°53' E 011°09'0 0.0
2016-Aug-22 14:33N 58°53' E 011°09'0 0.0
2016-Aug-22 13:33N 58°53' E 011°09'0 0.0
2016-Aug-22 12:33N 58°53' E 011°09'0 0.0
2016-Aug-22 11:33N 58°53' E 011°09'0 0.0
2016-Aug-22 10:33N 58°53' E 011°09'0 0.0
2016-Aug-22 09:33N 58°53' E 011°09'0 0.0
2016-Aug-22 08:33N 58°53' E 011°09'0 0.0
2016-Aug-22 07:33N 58°53' E 011°09'0 0.0
2016-Aug-22 06:33N 58°53' E 011°09'0 0.0
2016-Aug-22 05:33N 58°53' E 011°09'0 0.0
2016-Aug-22 04:33N 58°53' E 011°09'0 0.0
2016-Aug-22 03:33N 58°53' E 011°09'0 0.0
2016-Aug-22 02:33N 58°53' E 011°09'0 0.0
2016-Aug-22 01:33N 58°53' E 011°09'0 0.0
2016-Aug-22 00:33N 58°53' E 011°09'0 0.0
2016-Aug-21 23:33N 58°53' E 011°09'0 0.0
2016-Aug-21 22:33N 58°53' E 011°09'0 0.0
2016-Aug-21 21:33N 58°53' E 011°09'0 0.0
2016-Aug-21 20:33N 58°53' E 011°09'0 0.0
2016-Aug-21 19:33N 58°53' E 011°09'0 0.0
2016-Aug-21 18:33N 58°53' E 011°09'0 0.0
2016-Aug-21 17:33N 58°53' E 011°09'0 0.0
2016-Aug-21 16:33N 58°53' E 011°09'0 0.0
2016-Aug-21 15:33N 58°53' E 011°09'0 0.0
2016-Aug-21 14:33N 58°53' E 011°09'0 0.0
2016-Aug-21 13:33N 58°53' E 011°09'0 0.0
2016-Aug-21 12:33N 58°53' E 011°09'0 0.0
2016-Aug-21 11:33N 58°53' E 011°09'0 0.0
2016-Aug-21 10:33N 58°53' E 011°09'0 0.0
2016-Aug-21 09:33N 58°53' E 011°09'0 0.0
2016-Aug-21 08:33N 58°53' E 011°09'0 0.0
2016-Aug-21 07:33N 58°53' E 011°09'0 0.0
2016-Aug-21 06:33N 58°53' E 011°09'0 0.0
2016-Aug-21 05:33N 58°53' E 011°09'0 0.0
2016-Aug-21 04:33N 58°53' E 011°09'0 0.0
2016-Aug-21 03:33N 58°53' E 011°09'0 0.0
2016-Aug-21 02:33N 58°53' E 011°09'0 0.0
2016-Aug-21 01:33N 58°53' E 011°09'0 0.0
2016-Aug-21 00:30N 58°53' E 011°09'0 0.0
2016-Aug-20 23:30N 58°53' E 011°09'0 0.0
2016-Aug-20 22:34N 58°53' E 011°09'0 0.0
2016-Aug-20 21:34N 58°53' E 011°09'0 0.0
2016-Aug-20 20:31N 58°53' E 011°09'0 0.0
2016-Aug-20 19:31N 58°53' E 011°09'0 0.0
2016-Aug-20 18:31N 58°53' E 011°09'0 0.0
2016-Aug-20 17:31N 58°53' E 011°09'0 0.0
2016-Aug-20 16:31N 58°53' E 011°09'0 0.0
2016-Aug-20 15:31N 58°53' E 011°09'0 0.0
2016-Aug-20 14:31N 58°53' E 011°09'0 0.0
2016-Aug-20 13:31N 58°53' E 011°09'0 0.0
2016-Aug-20 12:31N 58°53' E 011°09'0 0.0
2016-Aug-20 11:19N 58°53' E 011°09'0 0.0
2016-Aug-20 10:31N 58°53' E 011°09'0 0.0
2016-Aug-20 09:31N 58°53' E 011°09'0 0.0
2016-Aug-20 08:31N 58°53' E 011°09'0 0.0
2016-Aug-20 07:31N 58°53' E 011°09'0 0.0
2016-Aug-20 06:31N 58°53' E 011°09'0 0.0
2016-Aug-20 05:31N 58°53' E 011°09'0 0.0
2016-Aug-20 04:28N 58°53' E 011°09'0 0.0
2016-Aug-20 03:28N 58°53' E 011°09'0 0.0
2016-Aug-20 02:31N 58°53' E 011°09'0 0.0
2016-Aug-20 01:31N 58°53' E 011°09'0 0.0
2016-Aug-20 00:31N 58°53' E 011°09'0 0.0
2016-Aug-19 23:31N 58°53' E 011°09'0 0.0
2016-Aug-19 22:31N 58°53' E 011°09'0 0.0
2016-Aug-19 21:28N 58°53' E 011°09'0 0.0
2016-Aug-19 20:31N 58°53' E 011°09'0 0.0
2016-Aug-19 19:31N 58°53' E 011°09'0 0.0
2016-Aug-19 18:31N 58°53' E 011°09'0 0.0
2016-Aug-19 17:31N 58°53' E 011°09'0 0.0
2016-Aug-19 16:31N 58°53' E 011°09'0 0.0
2016-Aug-19 15:31N 58°53' E 011°09'0 0.0
2016-Aug-19 14:31N 58°53' E 011°09'0 0.0
2016-Aug-19 13:31N 58°53' E 011°09'  
Track history (hours):
 
Tides and Currents Weather Stations Pressure Air Temp Water Temp Dewpoint Dewpoint Depression Visibility Wind Speed Wind Dir Waves Ship Positions

Oceanographic research ship Nereus (Sweden)

Detailed information on ship capabilities available from University of Delaware's Ocean Information Center.

Last reported at 2016-Aug-29 12:33 UTC. Time now 2016-Aug-29 12:57 UTC.
Position N 58°52' E 011°05'.

Length 16 m.

Type: Dredging. MMSI: 265599930.

Date/timePositionNaut miles runAvg speedWind from/ knotsBaromVisibWave heightAir tempDewpointWater temp
2016-Aug-29 12:33N 58°52' E 011°05'3 2.5
2016-Aug-29 11:33N 58°50' E 011°03'4 3.6
2016-Aug-29 10:32N 58°53' E 011°09'3 3.4
2016-Aug-29 09:33N 58°51' E 011°04'3 3.2
2016-Aug-29 08:33N 58°53' E 011°08'1 0.5
2016-Aug-29 07:31N 58°53' E 011°09'0 0.0
2016-Aug-29 06:31N 58°53' E 011°09'0 0.0
2016-Aug-29 05:31N 58°53' E 011°09'0 0.0
2016-Aug-29 04:31N 58°53' E 011°09'0 0.0
2016-Aug-29 03:31N 58°53' E 011°09'0 0.0
2016-Aug-29 02:31N 58°53' E 011°09'0 0.0
2016-Aug-29 01:28N 58°53' E 011°09'0 0.0
2016-Aug-29 00:31N 58°53' E 011°09'0 0.0
2016-Aug-28 23:31N 58°53' E 011°09'0 0.0
2016-Aug-28 22:31N 58°53' E 011°09'0 0.0
2016-Aug-28 21:31N 58°53' E 011°09'0 0.0
2016-Aug-28 20:31N 58°53' E 011°09'0 0.0
2016-Aug-28 19:28N 58°53' E 011°09'0 0.0
2016-Aug-28 18:31N 58°53' E 011°09'0 0.0
2016-Aug-28 17:25N 58°53' E 011°09'0 0.0
2016-Aug-28 16:31N 58°53' E 011°09'0 0.0
2016-Aug-28 15:31N 58°53' E 011°09'0 0.0
2016-Aug-28 14:31N 58°53' E 011°09'0 0.0
2016-Aug-28 13:31N 58°53' E 011°09'0 0.0
2016-Aug-28 12:31N 58°53' E 011°09'0 0.0
2016-Aug-28 11:31N 58°53' E 011°09'0 0.0
2016-Aug-28 10:31N 58°53' E 011°09'0 0.0
2016-Aug-28 09:31N 58°53' E 011°09'0 0.0
2016-Aug-28 08:31N 58°53' E 011°09'0 0.0
2016-Aug-28 07:31N 58°53' E 011°09'0 0.0
2016-Aug-28 06:31N 58°53' E 011°09'0 0.0
2016-Aug-28 05:31N 58°53' E 011°09'0 0.0
2016-Aug-28 04:31N 58°53' E 011°09'0 0.0
2016-Aug-28 03:31N 58°53' E 011°09'0 0.0
2016-Aug-28 02:28N 58°53' E 011°09'0 0.0
2016-Aug-28 01:31N 58°53' E 011°09'0 0.0
2016-Aug-28 00:31N 58°53' E 011°09'0 0.0
2016-Aug-27 23:31N 58°53' E 011°09'0 0.0
2016-Aug-27 22:31N 58°53' E 011°09'0 0.0
2016-Aug-27 21:31N 58°53' E 011°09'0 0.0
2016-Aug-27 20:28N 58°53' E 011°09'0 0.0
2016-Aug-27 19:31N 58°53' E 011°09'0 0.0
2016-Aug-27 18:31N 58°53' E 011°09'0 0.0
2016-Aug-27 17:31N 58°53' E 011°09'0 0.0
2016-Aug-27 16:32N 58°53' E 011°09'0 0.0
2016-Aug-27 15:31N 58°53' E 011°09'0 0.0
2016-Aug-27 14:28N 58°53' E 011°09'0 0.0
2016-Aug-27 13:31N 58°53' E 011°09'0 0.0
2016-Aug-27 12:31N 58°53' E 011°09'0 0.0
2016-Aug-27 11:31N 58°53' E 011°09'0 0.0
2016-Aug-27 10:32N 58°53' E 011°09'0 0.0
2016-Aug-27 09:31N 58°53' E 011°09'0 0.0
2016-Aug-27 08:32N 58°53' E 011°09'0 0.0
2016-Aug-27 07:32N 58°53' E 011°09'0 0.0
2016-Aug-27 06:32N 58°53' E 011°09'0 0.0
2016-Aug-27 04:32N 58°53' E 011°09'0 0.0
2016-Aug-27 03:32N 58°53' E 011°09'0 0.0
2016-Aug-27 02:32N 58°53' E 011°09'0 0.0
2016-Aug-27 01:32N 58°53' E 011°09'0 0.0
2016-Aug-27 00:32N 58°53' E 011°09'0 0.0
2016-Aug-26 23:32N 58°53' E 011°09'0 0.0
2016-Aug-26 22:32N 58°53' E 011°09'0 0.0
2016-Aug-26 21:32N 58°53' E 011°09'0 0.0
2016-Aug-26 20:32N 58°53' E 011°09'0 0.0
2016-Aug-26 19:32N 58°53' E 011°09'0 0.0
2016-Aug-26 18:32N 58°53' E 011°09'0 0.0
2016-Aug-26 17:32N 58°53' E 011°09'0 0.0
2016-Aug-26 16:32N 58°53' E 011°09'0 0.0
2016-Aug-26 15:32N 58°53' E 011°09'0 0.0
2016-Aug-26 14:32N 58°53' E 011°09'0 0.0
2016-Aug-26 13:29N 58°53' E 011°09'0 0.0
2016-Aug-26 12:32N 58°53' E 011°09'0 0.0
2016-Aug-26 11:32N 58°53' E 011°09'0 0.0
2016-Aug-26 10:32N 58°53' E 011°09'0 0.0
2016-Aug-26 09:32N 58°53' E 011°09'0 0.4
2016-Aug-26 08:33N 58°53' E 011°08'1 1.3
2016-Aug-26 07:33N 58°53' E 011°06'2 1.6
2016-Aug-26 06:32N 58°53' E 011°09'0 0.0
2016-Aug-26 04:32N 58°53' E 011°09'0 0.0
2016-Aug-26 03:32N 58°53' E 011°09'0 0.0
2016-Aug-26 02:32N 58°53' E 011°09'0 0.0
2016-Aug-26 01:32N 58°53' E 011°09'0 0.0
2016-Aug-26 00:32N 58°53' E 011°09'0 0.0
2016-Aug-25 23:32N 58°53' E 011°09'0 0.0
2016-Aug-25 22:32N 58°53' E 011°09'0 0.0
2016-Aug-25 21:32N 58°53' E 011°09'0 0.0
2016-Aug-25 20:32N 58°53' E 011°09'0 0.0
2016-Aug-25 19:32N 58°53' E 011°09'0 0.0
2016-Aug-25 18:33N 58°53' E 011°09'0 0.0
2016-Aug-25 17:33N 58°53' E 011°09'0 0.0
2016-Aug-25 16:30N 58°53' E 011°09'0 0.0
2016-Aug-25 15:33N 58°53' E 011°09'0 0.0
2016-Aug-25 14:33N 58°53' E 011°09'5 4.8
2016-Aug-25 13:33N 58°51' E 011°00'1 0.6
2016-Aug-25 12:33N 58°50' E 010°60'3 3.4
2016-Aug-25 11:33N 58°52' E 011°05'2 2.1
2016-Aug-25 10:31N 58°53' E 011°09'1 0.8
2016-Aug-25 09:34N 58°53' E 011°07'1 0.6
2016-Aug-25 08:33N 58°53' E 011°06'1 1.3
2016-Aug-25 07:31N 58°53' E 011°09'0 0.0
2016-Aug-25 06:31N 58°53' E 011°09'0 0.0
2016-Aug-25 04:31N 58°53' E 011°09'0 0.0
2016-Aug-25 03:28N 58°53' E 011°09'0 0.0
2016-Aug-25 02:31N 58°53' E 011°09'0 0.0
2016-Aug-25 01:31N 58°53' E 011°09'0 0.0
2016-Aug-25 00:31N 58°53' E 011°09'0 0.0
2016-Aug-24 23:31N 58°53' E 011°09'0 0.0
2016-Aug-24 22:31N 58°53' E 011°09'0 0.0
2016-Aug-24 21:31N 58°53' E 011°09'0 0.0
2016-Aug-24 20:31N 58°53' E 011°09'0 0.0
2016-Aug-24 19:31N 58°53' E 011°09'0 0.0
2016-Aug-24 18:31N 58°53' E 011°09'0 0.0
2016-Aug-24 17:31N 58°53' E 011°09'0 0.0
2016-Aug-24 16:31N 58°53' E 011°09'0 0.0
2016-Aug-24 15:31N 58°53' E 011°09'0 0.0
2016-Aug-24 14:31N 58°53' E 011°09'0 0.0
2016-Aug-24 13:28N 58°53' E 011°09'0 0.0
2016-Aug-24 12:31N 58°53' E 011°09'0 0.0
2016-Aug-24 11:31N 58°53' E 011°09'0 0.0
2016-Aug-24 10:31N 58°53' E 011°09'0 0.0
2016-Aug-24 09:31N 58°53' E 011°09'0 0.0
2016-Aug-24 08:31N 58°53' E 011°09'0 0.0
2016-Aug-24 07:31N 58°53' E 011°09'0 0.0
2016-Aug-24 06:31N 58°53' E 011°09'0 0.0
2016-Aug-24 04:31N 58°53' E 011°09'0 0.0
2016-Aug-24 03:31N 58°53' E 011°09'0 0.0
2016-Aug-24 02:31N 58°53' E 011°09'0 0.0
2016-Aug-24 01:31N 58°53' E 011°09'0 0.0
2016-Aug-24 00:28N 58°53' E 011°09'0 0.0
2016-Aug-23 23:31N 58°53' E 011°09'0 0.0
2016-Aug-23 22:31N 58°53' E 011°09'0 0.0
2016-Aug-23 21:31N 58°53' E 011°09'0 0.0
2016-Aug-23 20:31N 58°53' E 011°09'0 0.0
2016-Aug-23 19:31N 58°53' E 011°09'0 0.0
2016-Aug-23 18:31N 58°53' E 011°09'0 0.0
2016-Aug-23 17:31N 58°53' E 011°09'0 0.0
2016-Aug-23 16:31N 58°53' E 011°09'0 0.0
2016-Aug-23 15:31N 58°53' E 011°09'0 0.0
2016-Aug-23 14:28N 58°53' E 011°09'0 0.0
2016-Aug-23 13:31N 58°53' E 011°09'0 0.0
2016-Aug-23 12:31N 58°53' E 011°09'0 0.0
2016-Aug-23 11:31N 58°53' E 011°09'0 0.0
2016-Aug-23 10:31N 58°53' E 011°09'0 0.0
2016-Aug-23 09:31N 58°53' E 011°09'0 0.0
2016-Aug-23 08:31N 58°53' E 011°09'0 0.0
2016-Aug-23 07:31N 58°53' E 011°09'0 0.0
2016-Aug-23 06:33N 58°53' E 011°09'0 0.0
2016-Aug-23 05:33N 58°53' E 011°09'0 0.0
2016-Aug-23 04:33N 58°53' E 011°09'0 0.0
2016-Aug-23 03:33N 58°53' E 011°09'0 0.0
2016-Aug-23 02:33N 58°53' E 011°09'0 0.0
2016-Aug-23 01:33N 58°53' E 011°09'0 0.0
2016-Aug-23 00:33N 58°53' E 011°09'0 0.0
2016-Aug-22 23:33N 58°53' E 011°09'0 0.0
2016-Aug-22 22:33N 58°53' E 011°09'0 0.0
2016-Aug-22 21:33N 58°53' E 011°09'0 0.0
2016-Aug-22 20:33N 58°53' E 011°09'0 0.0
2016-Aug-22 19:33N 58°53' E 011°09'0 0.0
2016-Aug-22 18:33N 58°53' E 011°09'0 0.0
2016-Aug-22 17:33N 58°53' E 011°09'0 0.0
2016-Aug-22 16:33N 58°53' E 011°09'0 0.0
2016-Aug-22 15:33N 58°53' E 011°09'0 0.0
2016-Aug-22 14:33N 58°53' E 011°09'0 0.0
2016-Aug-22 13:33N 58°53' E 011°09'0 0.0
2016-Aug-22 12:33N 58°53' E 011°09'0 0.0
2016-Aug-22 11:33N 58°53' E 011°09'0 0.0
2016-Aug-22 10:33N 58°53' E 011°09'0 0.0
2016-Aug-22 09:33N 58°53' E 011°09'0 0.0
2016-Aug-22 08:33N 58°53' E 011°09'0 0.0
2016-Aug-22 07:33N 58°53' E 011°09'0 0.0
2016-Aug-22 06:33N 58°53' E 011°09'0 0.0
2016-Aug-22 05:33N 58°53' E 011°09'0 0.0
2016-Aug-22 04:33N 58°53' E 011°09'0 0.0
2016-Aug-22 03:33N 58°53' E 011°09'0 0.0
2016-Aug-22 02:33N 58°53' E 011°09'0 0.0
2016-Aug-22 01:33N 58°53' E 011°09'0 0.0
2016-Aug-22 00:33N 58°53' E 011°09'0 0.0
2016-Aug-21 23:33N 58°53' E 011°09'0 0.0
2016-Aug-21 22:33N 58°53' E 011°09'0 0.0
2016-Aug-21 21:33N 58°53' E 011°09'0 0.0
2016-Aug-21 20:33N 58°53' E 011°09'0 0.0
2016-Aug-21 19:33N 58°53' E 011°09'0 0.0
2016-Aug-21 18:33N 58°53' E 011°09'0 0.0
2016-Aug-21 17:33N 58°53' E 011°09'0 0.0
2016-Aug-21 16:33N 58°53' E 011°09'0 0.0
2016-Aug-21 15:33N 58°53' E 011°09'0 0.0
2016-Aug-21 14:33N 58°53' E 011°09'0 0.0
2016-Aug-21 13:33N 58°53' E 011°09'0 0.0
2016-Aug-21 12:33N 58°53' E 011°09'0 0.0
2016-Aug-21 11:33N 58°53' E 011°09'0 0.0
2016-Aug-21 10:33N 58°53' E 011°09'0 0.0
2016-Aug-21 09:33N 58°53' E 011°09'0 0.0
2016-Aug-21 08:33N 58°53' E 011°09'0 0.0
2016-Aug-21 07:33N 58°53' E 011°09'0 0.0
2016-Aug-21 06:33N 58°53' E 011°09'0 0.0
2016-Aug-21 05:33N 58°53' E 011°09'0 0.0
2016-Aug-21 04:33N 58°53' E 011°09'0 0.0
2016-Aug-21 03:33N 58°53' E 011°09'0 0.0
2016-Aug-21 02:33N 58°53' E 011°09'0 0.0
2016-Aug-21 01:33N 58°53' E 011°09'0 0.0
2016-Aug-21 00:30N 58°53' E 011°09'0 0.0
2016-Aug-20 23:30N 58°53' E 011°09'0 0.0
2016-Aug-20 22:34N 58°53' E 011°09'0 0.0
2016-Aug-20 21:34N 58°53' E 011°09'0 0.0
2016-Aug-20 20:31N 58°53' E 011°09'0 0.0
2016-Aug-20 19:31N 58°53' E 011°09'0 0.0
2016-Aug-20 18:31N 58°53' E 011°09'0 0.0
2016-Aug-20 17:31N 58°53' E 011°09'0 0.0
2016-Aug-20 16:31N 58°53' E 011°09'0 0.0
2016-Aug-20 15:31N 58°53' E 011°09'0 0.0
2016-Aug-20 14:31N 58°53' E 011°09'0 0.0
2016-Aug-20 13:31N 58°53' E 011°09'0 0.0
2016-Aug-20 12:31N 58°53' E 011°09'0 0.0
2016-Aug-20 11:19N 58°53' E 011°09'0 0.0
2016-Aug-20 10:31N 58°53' E 011°09'0 0.0
2016-Aug-20 09:31N 58°53' E 011°09'0 0.0
2016-Aug-20 08:31N 58°53' E 011°09'0 0.0
2016-Aug-20 07:31N 58°53' E 011°09'0 0.0
2016-Aug-20 06:31N 58°53' E 011°09'0 0.0
2016-Aug-20 05:31N 58°53' E 011°09'0 0.0
2016-Aug-20 04:28N 58°53' E 011°09'0 0.0
2016-Aug-20 03:28N 58°53' E 011°09'0 0.0
2016-Aug-20 02:31N 58°53' E 011°09'0 0.0
2016-Aug-20 01:31N 58°53' E 011°09'0 0.0
2016-Aug-20 00:31N 58°53' E 011°09'0 0.0
2016-Aug-19 23:31N 58°53' E 011°09'0 0.0
2016-Aug-19 22:31N 58°53' E 011°09'0 0.0
2016-Aug-19 21:28N 58°53' E 011°09'0 0.0
2016-Aug-19 20:31N 58°53' E 011°09'0 0.0
2016-Aug-19 19:31N 58°53' E 011°09'0 0.0
2016-Aug-19 18:31N 58°53' E 011°09'0 0.0
2016-Aug-19 17:31N 58°53' E 011°09'0 0.0
2016-Aug-19 16:31N 58°53' E 011°09'0 0.0
2016-Aug-19 15:31N 58°53' E 011°09'0 0.0
2016-Aug-19 14:31N 58°53' E 011°09'0 0.0
2016-Aug-19 13:31N 58°53' E 011°09'  

Dump ship's entire track history